Azle, Texas
Current Conditions -  °F | °C
As of 11:52 AM on Friday 24 Oct 2014 (Local Time) from KNFW Reporting Station
Clear Clear  
Wind Chill: 81°   Ceiling: Unl
Heat Index: 81°   Visibility: 10mi
Dew Point: 57°   Wind: 9mph
Humidity: 44%   Direction: 170°S
Pressure: 30.2"   Gusts: NA
Location:  32.88°N, 97.54°W
Report Text: KNFW 241652Z 17008KT 10SM CLR 27/14 A3020 RMK AO2 SLP208 T02720139 CHINO N VISNO N $
Loading
Personal Weather Stations






























Interactive Weather Map
Tropical Storm Tracking
New forecast layout! Learn more

10-Day Weather Forecast

Advertisements
Track Severe Weather on mobile